sensor_id;sensor_type;location;lat;lon;timestamp;P1;durP1;ratioP1;P2;durP2;ratioP2
59066;SDS011;44854;50.838;4.438;2024-02-28T00:00:04;30.20;;;18.10;;
59066;SDS011;44854;50.838;4.438;2024-02-28T00:02:30;27.63;;;16.35;;
59066;SDS011;44854;50.838;4.438;2024-02-28T00:04:56;31.92;;;17.23;;
59066;SDS011;44854;50.838;4.438;2024-02-28T00:07:24;27.40;;;15.90;;
59066;SDS011;44854;50.838;4.438;2024-02-28T00:09:50;26.23;;;15.95;;
59066;SDS011;44854;50.838;4.438;2024-02-28T00:12:16;24.42;;;15.43;;
59066;SDS011;44854;50.838;4.438;2024-02-28T00:14:42;28.23;;;16.75;;
59066;SDS011;44854;50.838;4.438;2024-02-28T00:17:07;25.75;;;15.52;;
59066;SDS011;44854;50.838;4.438;2024-02-28T00:19:33;27.35;;;15.80;;
59066;SDS011;44854;50.838;4.438;2024-02-28T00:21:58;28.75;;;16.77;;
59066;SDS011;44854;50.838;4.438;2024-02-28T00:24:27;24.80;;;15.60;;
59066;SDS011;44854;50.838;4.438;2024-02-28T00:26:54;25.63;;;17.17;;
59066;SDS011;44854;50.838;4.438;2024-02-28T00:29:20;31.63;;;18.23;;
59066;SDS011;44854;50.838;4.438;2024-02-28T00:31:45;28.50;;;17.70;;
59066;SDS011;44854;50.838;4.438;2024-02-28T00:34:11;25.17;;;16.65;;
59066;SDS011;44854;50.838;4.438;2024-02-28T00:36:37;25.30;;;16.05;;
59066;SDS011;44854;50.838;4.438;2024-02-28T00:39:03;28.52;;;16.98;;
59066;SDS011;44854;50.838;4.438;2024-02-28T00:41:29;26.95;;;16.45;;
59066;SDS011;44854;50.838;4.438;2024-02-28T00:43:54;30.27;;;17.83;;
59066;SDS011;44854;50.838;4.438;2024-02-28T00:46:20;28.60;;;17.70;;
59066;SDS011;44854;50.838;4.438;2024-02-28T00:48:45;30.05;;;19.05;;
59066;SDS011;44854;50.838;4.438;2024-02-28T00:51:11;26.98;;;16.70;;
59066;SDS011;44854;50.838;4.438;2024-02-28T00:53:37;31.63;;;18.35;;
59066;SDS011;44854;50.838;4.438;2024-02-28T00:56:03;29.20;;;16.55;;
59066;SDS011;44854;50.838;4.438;2024-02-28T00:58:29;28.58;;;18.33;;
59066;SDS011;44854;50.838;4.438;2024-02-28T01:00:55;30.52;;;16.42;;
59066;SDS011;44854;50.838;4.438;2024-02-28T01:03:21;29.98;;;18.67;;
59066;SDS011;44854;50.838;4.438;2024-02-28T01:05:48;27.77;;;17.25;;
59066;SDS011;44854;50.838;4.438;2024-02-28T01:08:14;30.55;;;17.88;;
59066;SDS011;44854;50.838;4.438;2024-02-28T01:10:42;28.27;;;18.77;;
59066;SDS011;44854;50.838;4.438;2024-02-28T01:13:08;33.70;;;18.17;;
59066;SDS011;44854;50.838;4.438;2024-02-28T01:15:33;29.65;;;18.42;;
59066;SDS011;44854;50.838;4.438;2024-02-28T01:17:59;31.67;;;18.50;;
59066;SDS011;44854;50.838;4.438;2024-02-28T01:20:25;31.58;;;19.00;;
59066;SDS011;44854;50.838;4.438;2024-02-28T01:22:50;32.13;;;19.20;;
59066;SDS011;44854;50.838;4.438;2024-02-28T01:25:16;28.20;;;17.27;;
59066;SDS011;44854;50.838;4.438;2024-02-28T01:27:43;30.75;;;19.17;;
59066;SDS011;44854;50.838;4.438;2024-02-28T01:30:09;35.00;;;19.42;;
59066;SDS011;44854;50.838;4.438;2024-02-28T01:35:03;26.50;;;18.05;;
59066;SDS011;44854;50.838;4.438;2024-02-28T01:37:29;32.65;;;17.55;;
59066;SDS011;44854;50.838;4.438;2024-02-28T01:39:55;31.95;;;18.85;;
59066;SDS011;44854;50.838;4.438;2024-02-28T01:42:20;30.27;;;18.75;;
59066;SDS011;44854;50.838;4.438;2024-02-28T01:44:47;28.25;;;18.60;;
59066;SDS011;44854;50.838;4.438;2024-02-28T01:47:16;31.80;;;18.50;;
59066;SDS011;44854;50.838;4.438;2024-02-28T01:49:43;27.80;;;17.58;;
59066;SDS011;44854;50.838;4.438;2024-02-28T01:52:10;34.03;;;20.25;;
59066;SDS011;44854;50.838;4.438;2024-02-28T01:54:37;35.83;;;19.48;;
59066;SDS011;44854;50.838;4.438;2024-02-28T01:57:03;31.58;;;19.42;;
59066;SDS011;44854;50.838;4.438;2024-02-28T01:59:30;31.77;;;19.25;;
59066;SDS011;44854;50.838;4.438;2024-02-28T02:01:57;31.23;;;18.50;;
59066;SDS011;44854;50.838;4.438;2024-02-28T02:04:23;32.47;;;19.15;;
59066;SDS011;44854;50.838;4.438;2024-02-28T02:06:49;32.40;;;19.65;;
59066;SDS011;44854;50.838;4.438;2024-02-28T02:09:17;30.17;;;19.80;;
59066;SDS011;44854;50.838;4.438;2024-02-28T02:11:43;31.13;;;18.77;;
59066;SDS011;44854;50.838;4.438;2024-02-28T02:14:10;39.25;;;19.88;;
59066;SDS011;44854;50.838;4.438;2024-02-28T02:16:35;31.27;;;19.15;;
59066;SDS011;44854;50.838;4.438;2024-02-28T02:19:01;31.42;;;20.50;;
59066;SDS011;44854;50.838;4.438;2024-02-28T02:21:31;33.65;;;20.88;;
59066;SDS011;44854;50.838;4.438;2024-02-28T02:24:02;35.03;;;20.52;;
59066;SDS011;44854;50.838;4.438;2024-02-28T02:26:28;29.15;;;19.15;;
59066;SDS011;44854;50.838;4.438;2024-02-28T02:28:54;33.65;;;20.27;;
59066;SDS011;44854;50.838;4.438;2024-02-28T02:31:19;37.97;;;20.90;;
59066;SDS011;44854;50.838;4.438;2024-02-28T02:33:45;31.98;;;19.00;;
59066;SDS011;44854;50.838;4.438;2024-02-28T02:36:11;28.98;;;19.35;;
59066;SDS011;44854;50.838;4.438;2024-02-28T02:38:36;31.52;;;19.42;;
59066;SDS011;44854;50.838;4.438;2024-02-28T02:41:02;37.10;;;19.45;;
59066;SDS011;44854;50.838;4.438;2024-02-28T02:43:28;34.80;;;20.15;;
59066;SDS011;44854;50.838;4.438;2024-02-28T02:45:54;34.90;;;18.30;;
59066;SDS011;44854;50.838;4.438;2024-02-28T02:48:20;37.42;;;19.35;;
59066;SDS011;44854;50.838;4.438;2024-02-28T02:50:45;29.50;;;18.83;;
59066;SDS011;44854;50.838;4.438;2024-02-28T02:53:11;28.88;;;18.40;;
59066;SDS011;44854;50.838;4.438;2024-02-28T02:55:41;28.10;;;19.38;;
59066;SDS011;44854;50.838;4.438;2024-02-28T02:58:06;27.92;;;18.42;;
59066;SDS011;44854;50.838;4.438;2024-02-28T03:00:32;28.92;;;17.65;;
59066;SDS011;44854;50.838;4.438;2024-02-28T03:02:57;31.13;;;17.63;;
59066;SDS011;44854;50.838;4.438;2024-02-28T03:05:23;29.13;;;17.65;;
59066;SDS011;44854;50.838;4.438;2024-02-28T03:07:49;29.10;;;17.42;;
59066;SDS011;44854;50.838;4.438;2024-02-28T03:10:14;26.17;;;16.13;;
59066;SDS011;44854;50.838;4.438;2024-02-28T03:12:40;29.08;;;18.70;;
59066;SDS011;44854;50.838;4.438;2024-02-28T03:15:06;39.55;;;18.80;;
59066;SDS011;44854;50.838;4.438;2024-02-28T03:17:32;30.65;;;18.10;;
59066;SDS011;44854;50.838;4.438;2024-02-28T03:19:58;26.85;;;17.73;;
59066;SDS011;44854;50.838;4.438;2024-02-28T03:22:24;29.45;;;17.33;;
59066;SDS011;44854;50.838;4.438;2024-02-28T03:24:51;28.97;;;18.27;;
59066;SDS011;44854;50.838;4.438;2024-02-28T03:27:16;31.40;;;18.42;;
59066;SDS011;44854;50.838;4.438;2024-02-28T03:29:43;28.70;;;17.37;;
59066;SDS011;44854;50.838;4.438;2024-02-28T03:32:09;30.17;;;18.60;;
59066;SDS011;44854;50.838;4.438;2024-02-28T03:34:34;33.78;;;17.55;;
59066;SDS011;44854;50.838;4.438;2024-02-28T03:37:00;34.22;;;18.27;;
59066;SDS011;44854;50.838;4.438;2024-02-28T03:39:26;25.50;;;17.77;;
59066;SDS011;44854;50.838;4.438;2024-02-28T03:41:51;33.72;;;18.25;;
59066;SDS011;44854;50.838;4.438;2024-02-28T03:44:17;30.38;;;17.67;;
59066;SDS011;44854;50.838;4.438;2024-02-28T03:46:43;29.92;;;17.73;;
59066;SDS011;44854;50.838;4.438;2024-02-28T03:49:08;25.45;;;17.38;;
59066;SDS011;44854;50.838;4.438;2024-02-28T03:51:40;32.17;;;17.70;;
59066;SDS011;44854;50.838;4.438;2024-02-28T03:54:06;28.55;;;17.67;;
59066;SDS011;44854;50.838;4.438;2024-02-28T03:56:32;30.55;;;18.60;;
59066;SDS011;44854;50.838;4.438;2024-02-28T03:59:00;29.42;;;17.85;;
59066;SDS011;44854;50.838;4.438;2024-02-28T04:01:25;32.95;;;17.67;;
59066;SDS011;44854;50.838;4.438;2024-02-28T04:03:53;28.00;;;17.15;;
59066;SDS011;44854;50.838;4.438;2024-02-28T04:06:19;27.58;;;17.33;;
59066;SDS011;44854;50.838;4.438;2024-02-28T04:08:45;28.48;;;17.55;;
59066;SDS011;44854;50.838;4.438;2024-02-28T04:11:12;30.98;;;18.27;;
59066;SDS011;44854;50.838;4.438;2024-02-28T04:13:38;29.83;;;17.30;;
59066;SDS011;44854;50.838;4.438;2024-02-28T04:16:05;30.45;;;17.65;;
59066;SDS011;44854;50.838;4.438;2024-02-28T04:18:31;30.48;;;16.83;;
59066;SDS011;44854;50.838;4.438;2024-02-28T04:20:58;27.75;;;16.67;;
59066;SDS011;44854;50.838;4.438;2024-02-28T04:23:24;29.77;;;17.77;;
59066;SDS011;44854;50.838;4.438;2024-02-28T04:25:51;27.13;;;17.40;;
59066;SDS011;44854;50.838;4.438;2024-02-28T04:28:17;30.52;;;17.52;;
59066;SDS011;44854;50.838;4.438;2024-02-28T04:30:42;34.05;;;17.00;;
59066;SDS011;44854;50.838;4.438;2024-02-28T04:33:08;28.50;;;18.08;;
59066;SDS011;44854;50.838;4.438;2024-02-28T04:35:34;26.13;;;16.50;;
59066;SDS011;44854;50.838;4.438;2024-02-28T04:38:00;30.38;;;17.38;;
59066;SDS011;44854;50.838;4.438;2024-02-28T04:40:26;29.80;;;16.63;;
59066;SDS011;44854;50.838;4.438;2024-02-28T04:42:53;32.63;;;18.35;;
59066;SDS011;44854;50.838;4.438;2024-02-28T04:45:18;32.25;;;18.40;;
59066;SDS011;44854;50.838;4.438;2024-02-28T04:47:45;30.75;;;17.77;;
59066;SDS011;44854;50.838;4.438;2024-02-28T04:50:11;29.05;;;16.60;;
59066;SDS011;44854;50.838;4.438;2024-02-28T04:52:37;27.58;;;17.00;;
59066;SDS011;44854;50.838;4.438;2024-02-28T04:55:03;34.55;;;17.25;;
59066;SDS011;44854;50.838;4.438;2024-02-28T04:57:32;29.67;;;16.85;;
59066;SDS011;44854;50.838;4.438;2024-02-28T04:59:57;30.25;;;17.55;;
59066;SDS011;44854;50.838;4.438;2024-02-28T05:02:23;27.48;;;15.85;;
59066;SDS011;44854;50.838;4.438;2024-02-28T05:04:50;27.95;;;16.77;;
59066;SDS011;44854;50.838;4.438;2024-02-28T05:07:16;35.63;;;17.88;;
59066;SDS011;44854;50.838;4.438;2024-02-28T05:09:42;30.13;;;17.30;;
59066;SDS011;44854;50.838;4.438;2024-02-28T05:12:08;30.40;;;17.52;;
59066;SDS011;44854;50.838;4.438;2024-02-28T05:14:34;34.53;;;17.60;;
59066;SDS011;44854;50.838;4.438;2024-02-28T05:16:59;37.53;;;19.13;;
59066;SDS011;44854;50.838;4.438;2024-02-28T05:19:25;30.08;;;16.73;;
59066;SDS011;44854;50.838;4.438;2024-02-28T05:21:51;35.13;;;17.98;;
59066;SDS011;44854;50.838;4.438;2024-02-28T05:24:16;35.20;;;19.17;;
59066;SDS011;44854;50.838;4.438;2024-02-28T05:26:43;35.88;;;19.00;;
59066;SDS011;44854;50.838;4.438;2024-02-28T05:29:08;34.20;;;18.70;;
59066;SDS011;44854;50.838;4.438;2024-02-28T05:31:34;30.55;;;19.02;;
59066;SDS011;44854;50.838;4.438;2024-02-28T05:34:01;36.05;;;18.40;;
59066;SDS011;44854;50.838;4.438;2024-02-28T05:36:27;33.60;;;19.35;;
59066;SDS011;44854;50.838;4.438;2024-02-28T05:38:55;34.10;;;18.98;;
59066;SDS011;44854;50.838;4.438;2024-02-28T05:41:22;36.97;;;20.90;;
59066;SDS011;44854;50.838;4.438;2024-02-28T05:43:49;35.15;;;20.58;;
59066;SDS011;44854;50.838;4.438;2024-02-28T05:46:15;40.00;;;22.20;;
59066;SDS011;44854;50.838;4.438;2024-02-28T05:48:42;40.70;;;22.70;;
59066;SDS011;44854;50.838;4.438;2024-02-28T05:51:08;37.92;;;21.73;;
59066;SDS011;44854;50.838;4.438;2024-02-28T05:53:34;41.20;;;21.70;;
59066;SDS011;44854;50.838;4.438;2024-02-28T05:56:06;36.83;;;21.65;;
59066;SDS011;44854;50.838;4.438;2024-02-28T05:58:42;41.85;;;22.77;;
59066;SDS011;44854;50.838;4.438;2024-02-28T06:01:12;42.88;;;22.42;;
59066;SDS011;44854;50.838;4.438;2024-02-28T06:03:40;41.35;;;23.48;;
59066;SDS011;44854;50.838;4.438;2024-02-28T06:06:06;38.75;;;23.23;;
59066;SDS011;44854;50.838;4.438;2024-02-28T06:08:35;39.67;;;22.63;;
59066;SDS011;44854;50.838;4.438;2024-02-28T06:11:03;37.13;;;22.25;;
59066;SDS011;44854;50.838;4.438;2024-02-28T06:13:28;43.03;;;22.55;;
59066;SDS011;44854;50.838;4.438;2024-02-28T06:15:55;46.72;;;31.40;;
59066;SDS011;44854;50.838;4.438;2024-02-28T06:18:21;34.78;;;22.58;;
59066;SDS011;44854;50.838;4.438;2024-02-28T06:20:52;39.65;;;23.48;;
59066;SDS011;44854;50.838;4.438;2024-02-28T06:23:19;41.33;;;21.73;;
59066;SDS011;44854;50.838;4.438;2024-02-28T06:25:45;37.58;;;21.13;;
59066;SDS011;44854;50.838;4.438;2024-02-28T06:28:10;38.60;;;21.80;;
59066;SDS011;44854;50.838;4.438;2024-02-28T06:30:36;44.70;;;21.70;;
59066;SDS011;44854;50.838;4.438;2024-02-28T06:33:02;38.65;;;20.50;;
59066;SDS011;44854;50.838;4.438;2024-02-28T06:35:29;33.17;;;21.40;;
59066;SDS011;44854;50.838;4.438;2024-02-28T06:37:55;42.10;;;22.73;;
59066;SDS011;44854;50.838;4.438;2024-02-28T06:40:21;46.78;;;22.00;;
59066;SDS011;44854;50.838;4.438;2024-02-28T06:42:46;43.72;;;23.15;;
59066;SDS011;44854;50.838;4.438;2024-02-28T06:45:12;36.17;;;22.42;;
59066;SDS011;44854;50.838;4.438;2024-02-28T06:47:38;40.80;;;22.80;;
59066;SDS011;44854;50.838;4.438;2024-02-28T06:50:05;38.45;;;20.58;;
59066;SDS011;44854;50.838;4.438;2024-02-28T06:52:31;38.78;;;20.55;;
59066;SDS011;44854;50.838;4.438;2024-02-28T06:54:59;35.40;;;20.35;;
59066;SDS011;44854;50.838;4.438;2024-02-28T06:57:25;35.37;;;22.07;;
59066;SDS011;44854;50.838;4.438;2024-02-28T06:59:51;38.03;;;22.73;;
59066;SDS011;44854;50.838;4.438;2024-02-28T07:02:17;35.70;;;20.20;;
59066;SDS011;44854;50.838;4.438;2024-02-28T07:04:42;42.75;;;22.55;;
59066;SDS011;44854;50.838;4.438;2024-02-28T07:07:08;43.35;;;22.17;;
59066;SDS011;44854;50.838;4.438;2024-02-28T07:09:34;40.65;;;21.90;;
59066;SDS011;44854;50.838;4.438;2024-02-28T07:12:02;47.80;;;21.02;;
59066;SDS011;44854;50.838;4.438;2024-02-28T07:14:28;41.83;;;21.80;;
59066;SDS011;44854;50.838;4.438;2024-02-28T07:16:54;48.80;;;24.02;;
59066;SDS011;44854;50.838;4.438;2024-02-28T07:19:20;52.13;;;20.83;;
59066;SDS011;44854;50.838;4.438;2024-02-28T07:21:46;45.15;;;21.92;;
59066;SDS011;44854;50.838;4.438;2024-02-28T07:24:12;52.03;;;22.25;;
59066;SDS011;44854;50.838;4.438;2024-02-28T07:26:38;44.45;;;21.63;;
59066;SDS011;44854;50.838;4.438;2024-02-28T07:31:31;41.75;;;20.38;;
59066;SDS011;44854;50.838;4.438;2024-02-28T07:33:57;43.53;;;22.25;;
59066;SDS011;44854;50.838;4.438;2024-02-28T07:36:23;44.60;;;21.45;;
59066;SDS011;44854;50.838;4.438;2024-02-28T07:38:48;42.67;;;20.83;;
59066;SDS011;44854;50.838;4.438;2024-02-28T07:41:14;45.03;;;20.98;;
59066;SDS011;44854;50.838;4.438;2024-02-28T07:43:43;46.92;;;22.08;;
59066;SDS011;44854;50.838;4.438;2024-02-28T07:46:09;52.83;;;21.85;;
59066;SDS011;44854;50.838;4.438;2024-02-28T07:48:36;49.92;;;21.40;;
59066;SDS011;44854;50.838;4.438;2024-02-28T07:51:04;46.90;;;21.23;;
59066;SDS011;44854;50.838;4.438;2024-02-28T07:53:30;46.55;;;21.85;;
59066;SDS011;44854;50.838;4.438;2024-02-28T07:55:56;43.72;;;22.90;;
59066;SDS011;44854;50.838;4.438;2024-02-28T07:58:22;50.42;;;21.13;;
59066;SDS011;44854;50.838;4.438;2024-02-28T08:00:47;44.60;;;22.00;;
59066;SDS011;44854;50.838;4.438;2024-02-28T08:03:13;42.78;;;21.65;;
59066;SDS011;44854;50.838;4.438;2024-02-28T08:05:39;49.25;;;23.85;;
59066;SDS011;44854;50.838;4.438;2024-02-28T08:08:06;56.65;;;22.50;;
59066;SDS011;44854;50.838;4.438;2024-02-28T08:10:32;43.13;;;21.75;;
59066;SDS011;44854;50.838;4.438;2024-02-28T08:12:57;49.45;;;22.67;;
59066;SDS011;44854;50.838;4.438;2024-02-28T08:15:24;41.72;;;22.88;;
59066;SDS011;44854;50.838;4.438;2024-02-28T08:17:49;53.50;;;23.00;;
59066;SDS011;44854;50.838;4.438;2024-02-28T08:20:15;58.80;;;25.45;;
59066;SDS011;44854;50.838;4.438;2024-02-28T08:22:41;50.40;;;21.35;;
59066;SDS011;44854;50.838;4.438;2024-02-28T08:25:06;57.45;;;22.50;;
59066;SDS011;44854;50.838;4.438;2024-02-28T08:27:33;42.72;;;22.05;;
59066;SDS011;44854;50.838;4.438;2024-02-28T08:30:02;43.60;;;22.13;;
59066;SDS011;44854;50.838;4.438;2024-02-28T08:32:28;45.87;;;21.70;;
59066;SDS011;44854;50.838;4.438;2024-02-28T08:34:54;48.45;;;21.63;;
59066;SDS011;44854;50.838;4.438;2024-02-28T08:37:21;43.72;;;22.10;;
59066;SDS011;44854;50.838;4.438;2024-02-28T08:39:47;44.30;;;20.75;;
59066;SDS011;44854;50.838;4.438;2024-02-28T08:42:12;56.58;;;21.02;;
59066;SDS011;44854;50.838;4.438;2024-02-28T08:44:38;43.67;;;21.02;;
59066;SDS011;44854;50.838;4.438;2024-02-28T08:47:04;46.58;;;20.90;;
59066;SDS011;44854;50.838;4.438;2024-02-28T08:49:32;40.80;;;19.60;;
59066;SDS011;44854;50.838;4.438;2024-02-28T08:51:58;43.90;;;20.98;;
59066;SDS011;44854;50.838;4.438;2024-02-28T08:54:33;47.58;;;20.15;;
59066;SDS011;44854;50.838;4.438;2024-02-28T08:57:01;37.47;;;18.35;;
59066;SDS011;44854;50.838;4.438;2024-02-28T08:59:28;34.08;;;18.27;;
59066;SDS011;44854;50.838;4.438;2024-02-28T09:01:57;41.22;;;17.88;;
59066;SDS011;44854;50.838;4.438;2024-02-28T09:04:23;37.60;;;18.35;;
59066;SDS011;44854;50.838;4.438;2024-02-28T09:06:49;36.20;;;18.20;;
59066;SDS011;44854;50.838;4.438;2024-02-28T09:09:15;38.08;;;17.45;;
59066;SDS011;44854;50.838;4.438;2024-02-28T09:11:41;45.83;;;18.43;;
59066;SDS011;44854;50.838;4.438;2024-02-28T09:14:07;42.67;;;17.92;;
59066;SDS011;44854;50.838;4.438;2024-02-28T09:16:33;42.75;;;19.35;;
59066;SDS011;44854;50.838;4.438;2024-02-28T09:18:58;44.13;;;18.63;;
59066;SDS011;44854;50.838;4.438;2024-02-28T09:21:24;44.65;;;20.17;;
59066;SDS011;44854;50.838;4.438;2024-02-28T09:23:50;55.97;;;19.73;;
59066;SDS011;44854;50.838;4.438;2024-02-28T09:26:15;48.60;;;19.67;;
59066;SDS011;44854;50.838;4.438;2024-02-28T09:28:41;52.88;;;19.30;;
59066;SDS011;44854;50.838;4.438;2024-02-28T09:31:06;41.85;;;19.63;;
59066;SDS011;44854;50.838;4.438;2024-02-28T09:33:32;49.40;;;19.83;;
59066;SDS011;44854;50.838;4.438;2024-02-28T09:35:58;58.65;;;20.40;;
59066;SDS011;44854;50.838;4.438;2024-02-28T09:38:23;54.67;;;20.00;;
59066;SDS011;44854;50.838;4.438;2024-02-28T09:40:49;50.60;;;18.23;;
59066;SDS011;44854;50.838;4.438;2024-02-28T09:43:15;44.55;;;19.05;;
59066;SDS011;44854;50.838;4.438;2024-02-28T09:45:55;49.08;;;17.67;;
59066;SDS011;44854;50.838;4.438;2024-02-28T09:48:25;47.47;;;19.17;;
59066;SDS011;44854;50.838;4.438;2024-02-28T09:50:56;45.30;;;19.38;;
59066;SDS011;44854;50.838;4.438;2024-02-28T09:53:25;48.60;;;19.88;;
59066;SDS011;44854;50.838;4.438;2024-02-28T09:55:51;45.05;;;19.63;;
59066;SDS011;44854;50.838;4.438;2024-02-28T09:58:18;45.17;;;18.67;;
59066;SDS011;44854;50.838;4.438;2024-02-28T10:00:47;37.97;;;16.75;;
59066;SDS011;44854;50.838;4.438;2024-02-28T10:03:18;40.22;;;17.60;;
59066;SDS011;44854;50.838;4.438;2024-02-28T10:05:45;43.20;;;17.63;;
59066;SDS011;44854;50.838;4.438;2024-02-28T10:08:12;42.55;;;17.50;;
59066;SDS011;44854;50.838;4.438;2024-02-28T10:10:44;36.95;;;17.17;;
59066;SDS011;44854;50.838;4.438;2024-02-28T10:13:11;43.00;;;17.08;;
59066;SDS011;44854;50.838;4.438;2024-02-28T10:15:36;48.63;;;17.33;;
59066;SDS011;44854;50.838;4.438;2024-02-28T10:18:02;35.05;;;16.40;;
59066;SDS011;44854;50.838;4.438;2024-02-28T10:20:30;38.55;;;16.85;;
59066;SDS011;44854;50.838;4.438;2024-02-28T10:22:56;39.25;;;17.20;;
59066;SDS011;44854;50.838;4.438;2024-02-28T10:25:21;38.40;;;16.90;;
59066;SDS011;44854;50.838;4.438;2024-02-28T10:27:47;42.65;;;16.52;;
59066;SDS011;44854;50.838;4.438;2024-02-28T10:30:13;38.22;;;16.17;;
59066;SDS011;44854;50.838;4.438;2024-02-28T10:32:47;46.45;;;18.02;;
59066;SDS011;44854;50.838;4.438;2024-02-28T10:35:14;45.60;;;17.90;;
59066;SDS011;44854;50.838;4.438;2024-02-28T10:37:53;35.17;;;15.20;;
59066;SDS011;44854;50.838;4.438;2024-02-28T10:40:21;29.42;;;14.57;;
59066;SDS011;44854;50.838;4.438;2024-02-28T10:42:47;34.80;;;15.93;;
59066;SDS011;44854;50.838;4.438;2024-02-28T10:45:15;33.25;;;15.23;;
59066;SDS011;44854;50.838;4.438;2024-02-28T10:47:43;30.90;;;14.75;;
59066;SDS011;44854;50.838;4.438;2024-02-28T10:50:10;30.20;;;13.80;;
59066;SDS011;44854;50.838;4.438;2024-02-28T10:52:38;27.30;;;13.85;;
59066;SDS011;44854;50.838;4.438;2024-02-28T10:55:09;24.20;;;12.88;;
59066;SDS011;44854;50.838;4.438;2024-02-28T10:57:36;28.73;;;14.05;;
59066;SDS011;44854;50.838;4.438;2024-02-28T11:00:01;27.93;;;15.70;;
59066;SDS011;44854;50.838;4.438;2024-02-28T11:02:30;31.73;;;14.05;;
59066;SDS011;44854;50.838;4.438;2024-02-28T11:04:57;29.42;;;14.40;;
59066;SDS011;44854;50.838;4.438;2024-02-28T11:07:26;27.38;;;13.38;;
59066;SDS011;44854;50.838;4.438;2024-02-28T11:09:55;21.77;;;12.15;;
59066;SDS011;44854;50.838;4.438;2024-02-28T11:12:27;28.52;;;12.38;;
59066;SDS011;44854;50.838;4.438;2024-02-28T11:14:59;23.83;;;12.23;;
59066;SDS011;44854;50.838;4.438;2024-02-28T11:17:30;20.05;;;12.57;;
59066;SDS011;44854;50.838;4.438;2024-02-28T11:19:57;22.13;;;10.88;;
59066;SDS011;44854;50.838;4.438;2024-02-28T11:22:22;20.23;;;11.57;;
59066;SDS011;44854;50.838;4.438;2024-02-28T11:24:48;26.02;;;11.27;;
59066;SDS011;44854;50.838;4.438;2024-02-28T11:27:17;25.95;;;10.70;;
59066;SDS011;44854;50.838;4.438;2024-02-28T11:29:43;22.92;;;9.32;;
59066;SDS011;44854;50.838;4.438;2024-02-28T11:32:12;22.00;;;9.75;;
59066;SDS011;44854;50.838;4.438;2024-02-28T11:34:39;15.23;;;9.35;;
59066;SDS011;44854;50.838;4.438;2024-02-28T11:37:09;15.07;;;8.23;;
59066;SDS011;44854;50.838;4.438;2024-02-28T11:39:35;19.02;;;8.77;;
59066;SDS011;44854;50.838;4.438;2024-02-28T11:42:14;17.73;;;8.63;;
59066;SDS011;44854;50.838;4.438;2024-02-28T11:44:41;11.90;;;7.95;;
59066;SDS011;44854;50.838;4.438;2024-02-28T11:47:10;14.30;;;7.75;;
59066;SDS011;44854;50.838;4.438;2024-02-28T11:49:37;18.17;;;7.90;;
59066;SDS011;44854;50.838;4.438;2024-02-28T11:52:04;20.40;;;7.00;;
59066;SDS011;44854;50.838;4.438;2024-02-28T11:54:30;16.92;;;7.05;;
59066;SDS011;44854;50.838;4.438;2024-02-28T11:56:56;15.02;;;6.00;;
59066;SDS011;44854;50.838;4.438;2024-02-28T11:59:22;15.57;;;6.57;;
59066;SDS011;44854;50.838;4.438;2024-02-28T12:01:47;23.55;;;6.80;;
59066;SDS011;44854;50.838;4.438;2024-02-28T12:04:14;11.00;;;5.25;;
59066;SDS011;44854;50.838;4.438;2024-02-28T12:06:40;11.63;;;6.07;;
59066;SDS011;44854;50.838;4.438;2024-02-28T12:09:06;8.65;;;5.25;;
59066;SDS011;44854;50.838;4.438;2024-02-28T12:11:36;10.27;;;4.93;;
59066;SDS011;44854;50.838;4.438;2024-02-28T12:14:06;9.52;;;5.97;;
59066;SDS011;44854;50.838;4.438;2024-02-28T12:16:34;14.55;;;7.60;;
59066;SDS011;44854;50.838;4.438;2024-02-28T12:19:06;16.48;;;7.15;;
59066;SDS011;44854;50.838;4.438;2024-02-28T12:21:33;12.95;;;6.45;;
59066;SDS011;44854;50.838;4.438;2024-02-28T12:23:58;13.00;;;6.65;;
59066;SDS011;44854;50.838;4.438;2024-02-28T12:26:24;13.10;;;6.32;;
59066;SDS011;44854;50.838;4.438;2024-02-28T12:28:52;13.45;;;6.57;;
59066;SDS011;44854;50.838;4.438;2024-02-28T12:31:17;14.45;;;5.70;;
59066;SDS011;44854;50.838;4.438;2024-02-28T12:33:44;15.98;;;6.40;;
59066;SDS011;44854;50.838;4.438;2024-02-28T12:36:09;11.50;;;5.40;;
59066;SDS011;44854;50.838;4.438;2024-02-28T12:38:35;12.88;;;6.20;;
59066;SDS011;44854;50.838;4.438;2024-02-28T12:41:02;13.73;;;5.57;;
59066;SDS011;44854;50.838;4.438;2024-02-28T12:43:29;8.65;;;5.30;;
59066;SDS011;44854;50.838;4.438;2024-02-28T12:45:57;14.20;;;5.97;;
59066;SDS011;44854;50.838;4.438;2024-02-28T12:48:23;14.98;;;5.93;;
59066;SDS011;44854;50.838;4.438;2024-02-28T12:50:49;13.90;;;5.82;;
59066;SDS011;44854;50.838;4.438;2024-02-28T12:53:14;11.13;;;6.22;;
59066;SDS011;44854;50.838;4.438;2024-02-28T12:55:40;15.93;;;6.95;;
59066;SDS011;44854;50.838;4.438;2024-02-28T12:58:07;16.15;;;6.68;;
59066;SDS011;44854;50.838;4.438;2024-02-28T13:00:33;13.57;;;6.82;;
59066;SDS011;44854;50.838;4.438;2024-02-28T13:02:58;12.18;;;6.30;;
59066;SDS011;44854;50.838;4.438;2024-02-28T13:05:24;13.70;;;6.53;;
59066;SDS011;44854;50.838;4.438;2024-02-28T13:07:50;10.77;;;6.47;;
59066;SDS011;44854;50.838;4.438;2024-02-28T13:10:17;12.00;;;6.25;;
59066;SDS011;44854;50.838;4.438;2024-02-28T13:12:43;10.93;;;5.43;;
59066;SDS011;44854;50.838;4.438;2024-02-28T13:15:09;12.75;;;5.68;;
59066;SDS011;44854;50.838;4.438;2024-02-28T13:17:35;9.45;;;5.82;;
59066;SDS011;44854;50.838;4.438;2024-02-28T13:20:01;12.13;;;5.90;;
59066;SDS011;44854;50.838;4.438;2024-02-28T13:22:28;11.65;;;6.05;;
59066;SDS011;44854;50.838;4.438;2024-02-28T13:24:54;16.60;;;6.18;;
59066;SDS011;44854;50.838;4.438;2024-02-28T13:27:20;9.85;;;5.63;;
59066;SDS011;44854;50.838;4.438;2024-02-28T13:29:45;12.05;;;5.60;;
59066;SDS011;44854;50.838;4.438;2024-02-28T13:32:11;13.68;;;6.32;;
59066;SDS011;44854;50.838;4.438;2024-02-28T13:34:39;10.52;;;6.00;;
59066;SDS011;44854;50.838;4.438;2024-02-28T13:37:04;11.87;;;6.03;;
59066;SDS011;44854;50.838;4.438;2024-02-28T13:39:30;12.05;;;5.60;;
59066;SDS011;44854;50.838;4.438;2024-02-28T13:41:56;12.27;;;5.97;;
59066;SDS011;44854;50.838;4.438;2024-02-28T13:44:24;9.50;;;6.55;;
59066;SDS011;44854;50.838;4.438;2024-02-28T13:46:50;8.93;;;5.38;;
59066;SDS011;44854;50.838;4.438;2024-02-28T13:49:18;14.07;;;6.43;;
59066;SDS011;44854;50.838;4.438;2024-02-28T13:51:44;11.57;;;6.05;;
59066;SDS011;44854;50.838;4.438;2024-02-28T13:54:10;14.88;;;6.53;;
59066;SDS011;44854;50.838;4.438;2024-02-28T13:56:36;12.00;;;5.15;;
59066;SDS011;44854;50.838;4.438;2024-02-28T13:59:02;10.52;;;5.57;;
59066;SDS011;44854;50.838;4.438;2024-02-28T14:01:29;10.60;;;6.38;;
59066;SDS011;44854;50.838;4.438;2024-02-28T14:03:55;9.52;;;6.07;;
59066;SDS011;44854;50.838;4.438;2024-02-28T14:06:20;11.05;;;6.72;;
59066;SDS011;44854;50.838;4.438;2024-02-28T14:08:47;9.05;;;5.57;;
59066;SDS011;44854;50.838;4.438;2024-02-28T14:11:13;7.43;;;6.10;;
59066;SDS011;44854;50.838;4.438;2024-02-28T14:16:06;7.13;;;4.75;;
59066;SDS011;44854;50.838;4.438;2024-02-28T14:18:32;7.20;;;5.13;;
59066;SDS011;44854;50.838;4.438;2024-02-28T14:20:58;12.77;;;5.20;;
59066;SDS011;44854;50.838;4.438;2024-02-28T14:23:24;10.50;;;5.10;;
59066;SDS011;44854;50.838;4.438;2024-02-28T14:25:49;10.23;;;5.65;;